Time;durP1;ratioP1;P1;durP2;ratioP2;P2;SDS_P1;SDS_P2;PMS_P1;PMS_P2;Temp;Humidity;BMP_temperature;BMP_pressure;BME280_temperature;BME280_humidity;BME280_pressure;Samples;Min_cycle;Max_cycle;Signal;HPM_P1;HPM_P2
2023/09/28 00:01:12;;;;;;;;;;;;;;;18.02;100.00;101703.63;106627;1257;72622;-84
2023/09/28 00:03:45;;;;;;;;;;;;;;;18.00;100.00;101701.27;108042;1262;61319;-87
2023/09/28 00:06:12;;;;;;;;;;;;;;;17.98;100.00;101700.40;106476;1263;61260;-84
2023/09/28 00:08:39;;;;;;;;;;;;;;;17.97;100.00;101694.50;108269;1257;74673;-85
2023/09/28 00:11:06;;;;;;;;;;;;;;;17.91;100.00;101695.36;108300;1262;68637;-86
2023/09/28 00:13:33;;;;;;;;;;;;;;;17.94;100.00;101702.13;106013;1261;71373;-84
2023/09/28 00:16:00;;;;;;;;;;;;;;;17.87;100.00;101696.31;106020;1261;60258;-86
2023/09/28 00:18:27;;;;;;;;;;;;;;;17.83;100.00;101697.15;106200;1260;60423;-84
2023/09/28 00:20:54;;;;;;;;;;;;;;;17.77;100.00;101695.27;106018;1262;74664;-86
2023/09/28 00:23:21;;;;;;;;;;;;;;;17.79;100.00;101703.42;106104;1262;68371;-84
2023/09/28 00:25:48;;;;;;;;;;;;;;;17.77;100.00;101707.10;105918;1260;72654;-87
2023/09/28 00:28:16;;;;;;;;;;;;;;;17.81;100.00;101705.86;105983;1258;61141;-86
2023/09/28 00:30:44;;;;;;;;;;;;;;;17.80;100.00;101700.55;106035;1258;61263;-84
2023/09/28 00:33:11;;;;;;;;;;;;;;;17.77;100.00;101693.92;106058;1263;73085;-86
2023/09/28 00:35:38;;;;;;;;;;;;;;;17.73;100.00;101701.72;106028;1263;69137;-84
2023/09/28 00:38:05;;;;;;;;;;;;;;;17.76;100.00;101702.25;106006;1263;73015;-87
2023/09/28 00:40:32;;;;;;;;;;;;;;;17.63;100.00;101696.27;106095;1262;61198;-84
2023/09/28 00:43:00;;;;;;;;;;;;;;;17.56;100.00;101696.21;106028;1261;61318;-85
2023/09/28 00:45:27;;;;;;;;;;;;;;;17.54;100.00;101695.41;105991;1257;74708;-87
2023/09/28 00:47:54;;;;;;;;;;;;;;;17.50;100.00;101690.30;105881;1259;67321;-87
2023/09/28 00:50:22;;;;;;;;;;;;;;;17.47;100.00;101694.61;106021;1258;73065;-87
2023/09/28 00:52:57;;;;;;;;;;;;;;;17.49;100.00;101693.83;105952;1264;61355;-84
2023/09/28 00:55:24;;;;;;;;;;;;;;;17.49;100.00;101695.09;106054;1257;61279;-87
2023/09/28 00:57:51;;;;;;;;;;;;;;;17.40;100.00;101695.80;106014;1258;73437;-87
2023/09/28 01:00:25;;;;;;;;;;;;;;;17.34;100.00;101694.55;106024;1261;67333;-87
2023/09/28 01:02:53;;;;;;;;;;;;;;;17.31;100.00;101693.98;106998;1257;71156;-85
2023/09/28 01:05:20;;;;;;;;;;;;;;;17.23;100.00;101696.56;106025;1262;61764;-88
2023/09/28 01:07:47;;;;;;;;;;;;;;;17.22;100.00;101695.80;106085;1258;61142;-87
2023/09/28 01:10:20;;;;;;;;;;;;;;;17.19;100.00;101693.79;105996;1257;73331;-87
2023/09/28 01:12:48;;;;;;;;;;;;;;;17.13;100.00;101694.11;106108;1257;69042;-85
2023/09/28 01:15:15;;;;;;;;;;;;;;;17.12;100.00;101694.26;106157;1258;71251;-85
2023/09/28 01:17:42;;;;;;;;;;;;;;;17.15;100.00;101693.77;106064;1257;61878;-84
2023/09/28 01:20:19;;;;;;;;;;;;;;;17.09;100.00;101696.77;106095;1257;61231;-86
2023/09/28 01:22:49;;;;;;;;;;;;;;;17.05;100.00;101702.83;106068;1257;73481;-86
2023/09/28 01:25:18;;;;;;;;;;;;;;;17.05;100.00;101696.98;105989;1257;68437;-85
2023/09/28 01:27:46;;;;;;;;;;;;;;;16.98;100.00;101704.45;106015;1259;71410;-86
2023/09/28 01:30:14;;;;;;;;;;;;;;;16.95;100.00;101704.77;105921;1258;61232;-84
2023/09/28 01:32:42;;;;;;;;;;;;;;;16.94;100.00;101699.74;106107;1257;61363;-84
2023/09/28 01:35:09;;;;;;;;;;;;;;;16.94;100.00;101705.71;105983;1257;73455;-86
2023/09/28 01:37:42;;;;;;;;;;;;;;;16.91;100.00;101716.89;108153;1257;67327;-86
2023/09/28 01:40:09;;;;;;;;;;;;;;;16.86;100.00;101707.38;105919;1257;72715;-87
2023/09/28 01:42:36;;;;;;;;;;;;;;;16.83;100.00;101708.36;105966;1262;63202;-84
2023/09/28 01:45:03;;;;;;;;;;;;;;;16.73;100.00;101712.50;106102;1263;61113;-84
2023/09/28 01:47:33;;;;;;;;;;;;;;;16.71;100.00;101709.39;106023;1257;74675;-83
2023/09/28 01:50:00;;;;;;;;;;;;;;;16.72;100.00;101708.05;106073;1257;68610;-84
2023/09/28 01:52:27;;;;;;;;;;;;;;;16.72;100.00;101707.04;106102;1257;72452;-87
2023/09/28 01:54:54;;;;;;;;;;;;;;;16.71;100.00;101707.66;106056;1258;60616;-86
2023/09/28 01:57:21;;;;;;;;;;;;;;;16.69;100.00;101705.91;106130;1260;61226;-84
2023/09/28 01:59:48;;;;;;;;;;;;;;;16.63;100.00;101712.16;106159;1263;74979;-87
2023/09/28 02:02:20;;;;;;;;;;;;;;;16.61;100.00;101717.21;106127;1262;68120;-87
2023/09/28 02:04:46;;;;;;;;;;;;;;;16.60;100.00;101716.98;107393;1257;70649;-86
2023/09/28 02:07:13;;;;;;;;;;;;;;;16.56;100.00;101716.84;106225;1257;61292;-84
2023/09/28 02:09:41;;;;;;;;;;;;;;;16.50;100.00;101721.04;107215;1260;59244;-85
2023/09/28 02:12:07;;;;;;;;;;;;;;;16.44;100.00;101718.77;106012;1262;74869;-87
2023/09/28 02:14:34;;;;;;;;;;;;;;;16.45;100.00;101722.13;105918;1262;68567;-86
2023/09/28 02:17:01;;;;;;;;;;;;;;;16.47;100.00;101722.39;106161;1257;72477;-87
2023/09/28 02:19:29;;;;;;;;;;;;;;;16.46;100.00;101721.74;106123;1262;61266;-87
2023/09/28 02:21:55;;;;;;;;;;;;;;;16.40;100.00;101722.45;106089;1257;61185;-87
2023/09/28 02:24:23;;;;;;;;;;;;;;;16.35;100.00;101720.61;106174;1257;73344;-84
2023/09/28 02:26:52;;;;;;;;;;;;;;;16.33;100.00;101721.23;106034;1259;67326;-84
2023/09/28 02:29:19;;;;;;;;;;;;;;;16.28;100.00;101723.13;106159;1257;72580;-86
2023/09/28 02:31:46;;;;;;;;;;;;;;;16.24;99.97;101723.29;106135;1262;61231;-87
2023/09/28 02:34:13;;;;;;;;;;;;;;;16.13;99.70;101722.68;106178;1257;61217;-84
2023/09/28 02:36:40;;;;;;;;;;;;;;;15.98;100.00;101721.52;106196;1257;74443;-84
2023/09/28 02:39:07;;;;;;;;;;;;;;;15.89;100.00;101723.50;106051;1257;68561;-87
2023/09/28 02:41:35;;;;;;;;;;;;;;;15.84;100.00;101723.47;106076;1257;72525;-84
2023/09/28 02:44:02;;;;;;;;;;;;;;;15.83;100.00;101727.45;106060;1257;61352;-86
2023/09/28 02:46:29;;;;;;;;;;;;;;;15.79;100.00;101727.52;106023;1258;61192;-84
2023/09/28 02:48:56;;;;;;;;;;;;;;;15.77;100.00;101731.89;106055;1259;73636;-86
2023/09/28 02:51:24;;;;;;;;;;;;;;;15.77;100.00;101734.92;107275;1262;67156;-87
2023/09/28 02:53:51;;;;;;;;;;;;;;;15.72;100.00;101738.30;106795;1257;72551;-84
2023/09/28 02:56:20;;;;;;;;;;;;;;;15.68;100.00;101735.20;106066;1258;61277;-86
2023/09/28 02:58:51;;;;;;;;;;;;;;;15.67;100.00;101739.57;106144;1259;61356;-83
2023/09/28 03:01:21;;;;;;;;;;;;;;;15.58;100.00;101739.20;106139;1262;74668;-87
2023/09/28 03:03:49;;;;;;;;;;;;;;;15.54;100.00;101739.89;106143;1256;68054;-87
2023/09/28 03:06:16;;;;;;;;;;;;;;;15.57;100.00;101737.19;106081;1262;72658;-86
2023/09/28 03:08:43;;;;;;;;;;;;;;;15.57;100.00;101740.48;106153;1257;61237;-86
2023/09/28 03:11:11;;;;;;;;;;;;;;;15.47;100.00;101738.70;105989;1259;61260;-84
2023/09/28 03:13:37;;;;;;;;;;;;;;;15.41;100.00;101739.77;106106;1262;74983;-84
2023/09/28 03:16:05;;;;;;;;;;;;;;;15.34;100.00;101735.38;106073;1258;69085;-84
2023/09/28 03:18:32;;;;;;;;;;;;;;;15.25;100.00;101734.59;106080;1258;72510;-86
2023/09/28 03:20:59;;;;;;;;;;;;;;;15.04;100.00;101738.88;107237;1257;61221;-86
2023/09/28 03:23:26;;;;;;;;;;;;;;;15.01;100.00;101737.39;106333;1258;61187;-87
2023/09/28 03:25:56;;;;;;;;;;;;;;;15.04;100.00;101737.06;105900;1257;74475;-85
2023/09/28 03:28:23;;;;;;;;;;;;;;;15.07;100.00;101735.45;106042;1257;67249;-87
2023/09/28 03:30:50;;;;;;;;;;;;;;;15.10;100.00;101740.35;106224;1259;72627;-87
2023/09/28 03:33:17;;;;;;;;;;;;;;;15.15;100.00;101742.48;106090;1258;61242;-84
2023/09/28 03:35:44;;;;;;;;;;;;;;;15.11;100.00;101746.62;106217;1262;61241;-86
2023/09/28 03:38:11;;;;;;;;;;;;;;;15.13;100.00;101749.38;106172;1257;75014;-86
2023/09/28 03:40:43;;;;;;;;;;;;;;;15.10;100.00;101749.50;106155;1260;67245;-83
2023/09/28 03:43:10;;;;;;;;;;;;;;;15.07;100.00;101749.21;105999;1257;72371;-83
2023/09/28 03:45:37;;;;;;;;;;;;;;;15.09;100.00;101751.85;106095;1257;61143;-87
2023/09/28 03:48:04;;;;;;;;;;;;;;;15.04;100.00;101752.64;105898;1258;61257;-83
2023/09/28 03:50:31;;;;;;;;;;;;;;;15.00;100.00;101752.09;106363;1257;74353;-87
2023/09/28 03:52:59;;;;;;;;;;;;;;;14.98;100.00;101747.19;106162;1258;68508;-86
2023/09/28 03:55:26;;;;;;;;;;;;;;;14.93;100.00;101751.23;105997;1257;72364;-83
2023/09/28 03:57:53;;;;;;;;;;;;;;;14.93;100.00;101748.85;107078;1257;61375;-87
2023/09/28 04:00:20;;;;;;;;;;;;;;;14.95;100.00;101748.80;105981;1257;60498;-86
2023/09/28 04:02:48;;;;;;;;;;;;;;;14.92;100.00;101753.37;106027;1257;74524;-86
2023/09/28 04:05:19;;;;;;;;;;;;;;;14.89;100.00;101752.33;106110;1259;67408;-87
2023/09/28 04:07:46;;;;;;;;;;;;;;;14.83;100.00;101750.30;105950;1257;72745;-87
2023/09/28 04:10:14;;;;;;;;;;;;;;;14.72;100.00;101752.39;107195;1257;61235;-87
2023/09/28 04:12:41;;;;;;;;;;;;;;;14.68;100.00;101755.80;106237;1262;61261;-87
2023/09/28 04:15:09;;;;;;;;;;;;;;;14.82;100.00;101752.98;106162;1257;74584;-83
2023/09/28 04:17:37;;;;;;;;;;;;;;;14.80;100.00;101752.48;106167;1258;68728;-83
2023/09/28 04:20:04;;;;;;;;;;;;;;;14.93;100.00;101752.10;106187;1260;72674;-83
2023/09/28 04:22:32;;;;;;;;;;;;;;;15.00;100.00;101751.66;106071;1257;118320;-86
2023/09/28 04:24:59;;;;;;;;;;;;;;;14.95;100.00;101751.77;106826;1257;61215;-83
2023/09/28 04:27:26;;;;;;;;;;;;;;;14.99;100.00;101752.91;106242;1257;74621;-83
2023/09/28 04:29:54;;;;;;;;;;;;;;;15.02;100.00;101755.89;105993;1257;68510;-83
2023/09/28 04:32:21;;;;;;;;;;;;;;;15.10;100.00;101758.69;106044;1257;72470;-84
2023/09/28 04:34:48;;;;;;;;;;;;;;;15.23;100.00;101759.60;106026;1259;62151;-84
2023/09/28 04:37:16;;;;;;;;;;;;;;;15.37;100.00;101763.04;106084;1262;61246;-83
2023/09/28 04:39:44;;;;;;;;;;;;;;;15.39;100.00;101768.52;106681;1258;74458;-83
2023/09/28 04:42:12;;;;;;;;;;;;;;;15.45;100.00;101764.34;105982;1261;68494;-87
2023/09/28 04:44:43;;;;;;;;;;;;;;;15.63;100.00;101765.70;105937;1258;72482;-86
2023/09/28 04:47:11;;;;;;;;;;;;;;;15.80;100.00;101761.09;105989;1257;62020;-84
2023/09/28 04:49:40;;;;;;;;;;;;;;;15.98;100.00;101760.50;106138;1257;61113;-83
2023/09/28 04:52:09;;;;;;;;;;;;;;;16.25;100.00;101753.45;106022;1257;73476;-86
2023/09/28 04:54:37;;;;;;;;;;;;;;;16.45;100.00;101753.02;106141;1259;67123;-87
2023/09/28 04:57:05;;;;;;;;;;;;;;;16.71;100.00;101753.32;106330;1261;71314;-84
2023/09/28 04:59:38;;;;;;;;;;;;;;;16.96;100.00;101751.96;107522;1259;61246;-84
2023/09/28 05:02:05;;;;;;;;;;;;;;;17.11;100.00;101754.64;106938;1258;61094;-86
2023/09/28 05:04:32;;;;;;;;;;;;;;;17.29;100.00;101752.89;106190;1257;74673;-88
2023/09/28 05:06:59;;;;;;;;;;;;;;;17.50;100.00;101757.13;105964;1257;68402;-87
2023/09/28 05:09:27;;;;;;;;;;;;;;;17.66;100.00;101756.27;106103;1257;71342;-85
2023/09/28 05:11:56;;;;;;;;;;;;;;;17.82;100.00;101756.59;106099;1257;61205;-87
2023/09/28 05:14:24;;;;;;;;;;;;;;;18.06;100.00;101761.74;106142;1257;61251;-86
2023/09/28 05:16:52;;;;;;;;;;;;;;;18.31;100.00;101763.92;105989;1262;76345;-85
2023/09/28 05:19:19;;;;;;;;;;;;;;;18.51;100.00;101763.02;106082;1262;69855;-84
2023/09/28 10:09:04;;;;;;;;;;;;;;;32.48;32.19;101679.94;106528;1257;61263;-86
2023/09/28 10:11:31;;;;;;;;;;;;;;;32.57;32.10;101677.63;106066;1260;67131;-86
2023/09/28 10:13:58;;;;;;;;;;;;;;;32.67;31.60;101676.83;106201;1260;61182;-86
2023/09/28 10:16:26;;;;;;;;;;;;;;;32.76;30.64;101680.71;106044;1259;64861;-86
2023/09/28 10:18:53;;;;;;;;;;;;;;;32.81;29.72;101674.25;106173;1262;61292;-88
2023/09/28 10:21:24;;;;;;;;;;;;;;;32.83;29.70;101671.83;106215;1261;61156;-86
2023/09/28 10:23:55;;;;;;;;;;;;;;;33.02;30.00;101667.80;106143;1261;67050;-86
2023/09/28 10:26:22;;;;;;;;;;;;;;;33.12;29.59;101672.90;106103;1259;61115;-88
2023/09/28 10:29:15;;;;;;;;;;;;;;;33.09;29.02;101666.67;106488;1262;64100;-87
2023/09/28 10:31:43;;;;;;;;;;;;;;;33.08;28.27;101660.04;106318;1258;61456;-88
2023/09/28 10:34:17;;;;;;;;;;;;;;;33.19;28.33;101661.31;106220;1259;60843;-86
2023/09/28 10:36:44;;;;;;;;;;;;;;;33.29;28.53;101654.11;106097;1259;66085;-86
2023/09/28 10:39:14;;;;;;;;;;;;;;;33.31;27.85;101652.31;106205;1262;61218;-86
2023/09/28 10:42:05;;;;;;;;;;;;;;;33.26;26.77;101648.05;106220;1260;64152;-86
2023/09/28 10:44:32;;;;;;;;;;;;;;;33.34;25.95;101644.30;106135;1258;61311;-86
2023/09/28 10:46:59;;;;;;;;;;;;;;;33.49;26.42;101643.45;106043;1260;61127;-86
2023/09/28 10:49:26;;;;;;;;;;;;;;;33.56;26.43;101639.90;106111;1257;67022;-87
2023/09/28 10:51:56;;;;;;;;;;;;;;;33.55;26.05;101643.38;106196;1257;61225;-88
2023/09/28 10:54:27;;;;;;;;;;;;;;;33.62;26.16;101636.64;106067;1260;64903;-87
2023/09/28 10:56:54;;;;;;;;;;;;;;;33.66;25.79;101635.16;106156;1262;61175;-86
2023/09/28 10:59:21;;;;;;;;;;;;;;;33.71;25.87;101631.50;106189;1260;61354;-86
2023/09/28 11:01:48;;;;;;;;;;;;;;;33.75;25.95;101628.90;106088;1259;67272;-86
2023/09/28 11:04:16;;;;;;;;;;;;;;;33.76;25.70;101628.89;106154;1261;61225;-88
2023/09/28 11:06:43;;;;;;;;;;;;;;;33.79;24.53;101625.71;106283;1259;63873;-85
2023/09/28 11:09:13;;;;;;;;;;;;;;;33.79;24.93;101625.23;106295;1262;61291;-88
2023/09/28 11:11:40;;;;;;;;;;;;;;;33.79;25.26;101626.52;106107;1259;61334;-85
2023/09/28 11:14:07;;;;;;;;;;;;;;;33.80;25.26;101621.02;106257;1261;65775;-88
2023/09/28 11:16:34;;;;;;;;;;;;;;;33.84;24.97;101617.27;106222;1259;61211;-86
2023/09/28 11:19:02;;;;;;;;;;;;;;;33.80;25.27;101616.00;106377;1258;65380;-87
2023/09/28 11:21:28;;;;;;;;;;;;;;;33.77;25.43;101617.95;106255;1262;61267;-89
2023/09/28 11:23:55;;;;;;;;;;;;;;;33.78;25.57;101613.58;106262;1258;61165;-87
2023/09/28 11:26:23;;;;;;;;;;;;;;;33.73;24.58;101609.39;106187;1259;65757;-89
2023/09/28 11:28:50;;;;;;;;;;;;;;;33.71;25.16;101608.66;106216;1258;61113;-85
2023/09/28 11:31:18;;;;;;;;;;;;;;;33.61;25.19;101602.88;106284;1258;64221;-86
2023/09/28 11:33:46;;;;;;;;;;;;;;;33.53;25.16;101601.35;106018;1259;61462;-86
2023/09/28 11:36:15;;;;;;;;;;;;;;;33.52;25.44;101603.37;106661;1259;61362;-88
2023/09/28 11:38:43;;;;;;;;;;;;;;;33.53;25.81;101602.64;106121;1258;67030;-89
2023/09/28 11:41:09;;;;;;;;;;;;;;;33.49;25.67;101602.09;106290;1259;59973;-88
2023/09/28 11:43:44;;;;;;;;;;;;;;;33.52;25.79;101601.11;106074;1259;64070;-86
2023/09/28 11:46:12;;;;;;;;;;;;;;;33.56;25.61;101599.97;106868;1259;59969;-86
2023/09/28 11:48:40;;;;;;;;;;;;;;;33.53;25.16;101598.59;106443;1259;60379;-85
2023/09/28 11:51:08;;;;;;;;;;;;;;;33.44;25.43;101599.42;106069;1258;67096;-85
2023/09/28 11:53:41;;;;;;;;;;;;;;;33.40;25.22;101598.73;106327;1259;61444;-84
2023/09/28 11:56:09;;;;;;;;;;;;;;;33.34;25.30;101595.91;106488;1258;62810;-87
2023/09/28 11:58:36;;;;;;;;;;;;;;;33.33;25.46;101589.02;107473;1258;59370;-88
2023/09/28 12:01:05;;;;;;;;;;;;;;;33.33;25.53;101589.52;107058;1259;59928;-85
2023/09/28 12:03:32;;;;;;;;;;;;;;;33.36;24.76;101586.52;106391;1262;64717;-85
2023/09/28 12:05:59;;;;;;;;;;;;;;;33.29;24.48;101586.30;106219;1259;61238;-83
2023/09/28 12:08:28;;;;;;;;;;;;;;;33.24;24.66;101585.73;106168;1259;64339;-84
2023/09/28 12:10:57;;;;;;;;;;;;;;;33.23;24.65;101583.16;106226;1259;61312;-88
2023/09/28 12:13:24;;;;;;;;;;;;;;;33.27;24.97;101577.95;106118;1259;61333;-84
2023/09/28 12:15:52;;;;;;;;;;;;;;;33.26;24.73;101575.20;106196;1258;67346;-87
2023/09/28 12:18:18;;;;;;;;;;;;;;;33.25;24.69;101575.77;106015;1261;61268;-88
2023/09/28 12:20:46;;;;;;;;;;;;;;;33.28;24.86;101575.61;106057;1259;63958;-88
2023/09/28 12:23:13;;;;;;;;;;;;;;;33.32;24.94;101573.09;106230;1260;61283;-87
2023/09/28 12:25:40;;;;;;;;;;;;;;;33.31;24.64;101568.89;106066;1257;61234;-88
2023/09/28 12:28:08;;;;;;;;;;;;;;;33.25;24.76;101567.13;106397;1262;65902;-85
2023/09/28 12:30:37;;;;;;;;;;;;;;;33.34;24.96;101565.07;106090;1262;61220;-84
2023/09/28 12:33:05;;;;;;;;;;;;;;;33.44;24.73;101559.05;106284;1260;63878;-85
2023/09/28 12:35:32;;;;;;;;;;;;;;;33.46;24.88;101559.84;106208;1259;61250;-87
2023/09/28 12:38:01;;;;;;;;;;;;;;;33.48;24.85;101556.91;106126;1259;60504;-87
2023/09/28 12:40:28;;;;;;;;;;;;;;;33.40;25.01;101553.39;106182;1259;67184;-86
2023/09/28 12:42:55;;;;;;;;;;;;;;;33.20;24.60;101550.86;106103;1258;61344;-85
2023/09/28 12:45:23;;;;;;;;;;;;;;;33.18;24.86;101547.89;106098;1257;63819;-85
2023/09/28 12:47:50;;;;;;;;;;;;;;;33.21;24.98;101545.61;106227;1260;61340;-86
2023/09/28 12:50:18;;;;;;;;;;;;;;;33.22;24.71;101545.22;106204;1258;61129;-84
2023/09/28 12:52:45;;;;;;;;;;;;;;;33.19;25.07;101542.30;106159;1261;67098;-85
2023/09/28 12:55:12;;;;;;;;;;;;;;;33.12;25.22;101543.38;106215;1262;61152;-85
2023/09/28 12:57:42;;;;;;;;;;;;;;;33.05;25.60;101540.80;107014;1259;64813;-85
2023/09/28 13:00:10;;;;;;;;;;;;;;;33.05;25.58;101540.31;106322;1262;61175;-84
2023/09/28 13:02:38;;;;;;;;;;;;;;;33.02;25.68;101540.07;106733;1258;61288;-85
2023/09/28 13:05:08;;;;;;;;;;;;;;;32.96;25.50;101538.29;106432;1262;66272;-85
2023/09/28 13:07:35;;;;;;;;;;;;;;;32.88;25.74;101536.37;107229;1262;61030;-86
2023/09/28 13:10:03;;;;;;;;;;;;;;;32.79;25.79;101536.64;106142;1257;63770;-86
2023/09/28 13:12:31;;;;;;;;;;;;;;;32.79;25.45;101538.16;106336;1262;61224;-87
2023/09/28 13:14:58;;;;;;;;;;;;;;;32.84;25.55;101533.05;106116;1258;61344;-87
2023/09/28 13:17:27;;;;;;;;;;;;;;;32.87;25.62;101530.23;106061;1258;65750;-86
2023/09/28 13:19:55;;;;;;;;;;;;;;;32.86;25.47;101532.82;106131;1259;61308;-85
2023/09/28 13:22:23;;;;;;;;;;;;;;;32.82;25.50;101531.61;106210;1260;63951;-85
2023/09/28 13:24:50;;;;;;;;;;;;;;;32.85;25.34;101531.44;106123;1259;61349;-85
2023/09/28 13:27:18;;;;;;;;;;;;;;;32.77;25.56;101529.84;105988;1260;61426;-87
2023/09/28 13:29:45;;;;;;;;;;;;;;;32.77;25.65;101529.04;106149;1259;65904;-86
2023/09/28 13:32:13;;;;;;;;;;;;;;;32.74;25.39;101526.77;106107;1260;61278;-85
2023/09/28 13:34:42;;;;;;;;;;;;;;;32.64;25.30;101525.25;106161;1259;65131;-86
2023/09/28 13:37:10;;;;;;;;;;;;;;;32.52;25.51;101530.17;106167;1260;61365;-85
2023/09/28 13:39:37;;;;;;;;;;;;;;;32.46;25.27;101525.71;106302;1262;61086;-87
2023/09/28 13:42:04;;;;;;;;;;;;;;;32.41;25.20;101525.31;106333;1262;66546;-86
2023/09/28 13:44:32;;;;;;;;;;;;;;;32.33;25.42;101525.89;106050;1258;61347;-86
2023/09/28 13:47:02;;;;;;;;;;;;;;;32.31;25.71;101520.47;106196;1262;65060;-84
2023/09/28 13:49:29;;;;;;;;;;;;;;;32.31;25.55;101519.48;106125;1260;61244;-86
2023/09/28 13:51:57;;;;;;;;;;;;;;;32.27;25.61;101516.90;105973;1259;61377;-86
2023/09/28 13:54:29;;;;;;;;;;;;;;;32.23;25.63;101518.28;106177;1259;67128;-85
2023/09/28 13:57:01;;;;;;;;;;;;;;;32.16;25.40;101515.52;106284;1259;61301;-85
2023/09/28 13:59:28;;;;;;;;;;;;;;;32.05;25.61;101516.40;106067;1260;64819;-85
2023/09/28 14:01:56;;;;;;;;;;;;;;;32.04;25.61;101516.16;106158;1258;61346;-87
2023/09/28 14:04:24;;;;;;;;;;;;;;;31.95;25.92;101512.74;106287;1262;61260;-86
2023/09/28 14:06:54;;;;;;;;;;;;;;;31.90;26.06;101510.63;106277;1262;66642;-85
2023/09/28 14:09:26;;;;;;;;;;;;;;;31.90;26.27;101512.16;106072;1257;61261;-86
2023/09/28 14:11:54;;;;;;;;;;;;;;;31.91;26.32;101511.58;106039;1260;63839;-87
2023/09/28 14:14:23;;;;;;;;;;;;;;;31.89;26.54;101509.56;106116;1261;61263;-85
2023/09/28 14:16:50;;;;;;;;;;;;;;;31.82;26.46;101508.02;106341;1258;61260;-85
2023/09/28 14:19:17;;;;;;;;;;;;;;;31.70;26.49;101508.48;106133;1261;65865;-85
2023/09/28 14:21:44;;;;;;;;;;;;;;;31.64;26.64;101515.48;106114;1262;61298;-84
2023/09/28 14:24:12;;;;;;;;;;;;;;;31.58;26.55;101516.75;106098;1258;63795;-84
2023/09/28 14:26:39;;;;;;;;;;;;;;;31.56;26.51;101514.32;106169;1260;61231;-84
2023/09/28 14:29:11;;;;;;;;;;;;;;;31.46;26.69;101512.83;106439;1260;59870;-86
2023/09/28 14:31:38;;;;;;;;;;;;;;;31.24;27.01;101515.05;107235;1258;65896;-85
2023/09/28 14:34:06;;;;;;;;;;;;;;;31.13;27.30;101510.71;106782;1262;61339;-86
2023/09/28 14:36:32;;;;;;;;;;;;;;;31.07;27.60;101512.15;107053;1262;63870;-84
2023/09/28 14:38:59;;;;;;;;;;;;;;;31.02;27.65;101508.42;106270;1258;60638;-85
2023/09/28 14:41:27;;;;;;;;;;;;;;;30.85;27.89;101507.16;106290;1261;59503;-85
2023/09/28 14:43:55;;;;;;;;;;;;;;;30.72;28.43;101503.60;106013;1261;66858;-84
2023/09/28 14:46:23;;;;;;;;;;;;;;;30.69;28.67;101504.14;106001;1262;61365;-85
2023/09/28 14:48:50;;;;;;;;;;;;;;;30.67;28.53;101501.63;106125;1260;64187;-85
2023/09/28 14:51:18;;;;;;;;;;;;;;;30.64;28.79;101501.30;106074;1261;61539;-84
2023/09/28 14:53:45;;;;;;;;;;;;;;;30.57;29.09;101500.27;107172;1260;61327;-84
2023/09/28 14:56:13;;;;;;;;;;;;;;;30.52;29.34;101500.71;106086;1258;64568;-85
2023/09/28 14:58:40;;;;;;;;;;;;;;;30.44;29.61;101497.60;106219;1262;61189;-85
2023/09/28 15:01:08;;;;;;;;;;;;;;;30.31;29.94;101501.36;106122;1259;64013;-85
2023/09/28 15:03:35;;;;;;;;;;;;;;;30.21;30.52;101502.78;106278;1258;61221;-84
2023/09/28 15:06:03;;;;;;;;;;;;;;;30.16;30.76;101501.05;106838;1260;61176;-85
2023/09/28 15:08:32;;;;;;;;;;;;;;;30.19;30.60;101502.20;106485;1259;66020;-85
2023/09/28 15:10:59;;;;;;;;;;;;;;;30.08;31.25;101502.90;106362;1260;61204;-84
2023/09/28 15:13:26;;;;;;;;;;;;;;;29.89;32.39;101506.00;106664;1259;62815;-84
2023/09/28 15:15:53;;;;;;;;;;;;;;;29.73;33.07;101502.45;108260;1259;59657;-84
2023/09/28 15:18:20;;;;;;;;;;;;;;;29.57;33.45;101504.77;108245;1260;61207;-84
2023/09/28 15:20:47;;;;;;;;;;;;;;;29.39;34.03;101506.21;107659;1257;64626;-86
2023/09/28 15:23:14;;;;;;;;;;;;;;;29.23;34.43;101508.52;106589;1262;61164;-85
2023/09/28 15:25:41;;;;;;;;;;;;;;;29.06;34.99;101506.66;106221;1260;62657;-86
2023/09/28 15:28:08;;;;;;;;;;;;;;;28.89;35.81;101510.34;106106;1260;61385;-84
2023/09/28 15:30:36;;;;;;;;;;;;;;;28.73;36.42;101508.98;106111;1260;61262;-84
2023/09/28 15:33:03;;;;;;;;;;;;;;;28.54;36.87;101510.94;106078;1258;67026;-84
2023/09/28 15:35:31;;;;;;;;;;;;;;;28.40;37.54;101512.69;106102;1258;61257;-84
2023/09/28 15:37:58;;;;;;;;;;;;;;;28.25;37.98;101517.41;106158;1263;63912;-84
2023/09/28 15:40:25;;;;;;;;;;;;;;;28.09;38.28;101519.31;106088;1258;61236;-84
2023/09/28 15:42:53;;;;;;;;;;;;;;;27.95;38.65;101519.99;106145;1258;61298;-86
2023/09/28 15:45:19;;;;;;;;;;;;;;;27.76;39.23;101523.95;106085;1262;73535;-85
2023/09/28 15:47:46;;;;;;;;;;;;;;;27.58;39.56;101526.63;106159;1259;61393;-84
2023/09/28 15:50:14;;;;;;;;;;;;;;;27.39;40.13;101527.30;106156;1262;63874;-84
2023/09/28 15:52:41;;;;;;;;;;;;;;;27.16;40.88;101529.91;106250;1260;61250;-84
2023/09/28 15:55:08;;;;;;;;;;;;;;;26.92;41.83;101528.54;106376;1258;61344;-85
2023/09/28 15:57:35;;;;;;;;;;;;;;;26.74;42.65;101533.95;106106;1259;66099;-84
2023/09/28 16:00:02;;;;;;;;;;;;;;;26.57;43.22;101534.42;106125;1262;61285;-85
2023/09/28 16:02:30;;;;;;;;;;;;;;;26.36;43.98;101530.29;106190;1262;64004;-83
2023/09/28 16:04:57;;;;;;;;;;;;;;;26.20;44.82;101531.70;106259;1263;61305;-85
2023/09/28 16:07:24;;;;;;;;;;;;;;;26.12;45.57;101529.73;106193;1262;61201;-83
2023/09/28 16:09:51;;;;;;;;;;;;;;;25.98;46.17;101534.08;106482;1259;66355;-83
2023/09/28 16:12:18;;;;;;;;;;;;;;;25.76;47.01;101533.06;106162;1263;61261;-83
2023/09/28 16:14:45;;;;;;;;;;;;;;;25.63;47.73;101532.85;106074;1257;64223;-84
2023/09/28 16:17:12;;;;;;;;;;;;;;;25.40;48.87;101530.80;106247;1257;61204;-85
2023/09/28 16:19:40;;;;;;;;;;;;;;;25.23;49.43;101527.52;106354;1262;61174;-84
2023/09/28 16:22:07;;;;;;;;;;;;;;;25.08;49.97;101527.27;105859;1260;284851;-84
2023/09/28 16:24:34;;;;;;;;;;;;;;;24.89;50.81;101529.95;106106;1262;68607;-84
2023/09/28 16:27:01;;;;;;;;;;;;;;;24.75;51.24;101528.93;106142;1261;72219;-84
2023/09/28 16:29:28;;;;;;;;;;;;;;;24.61;53.05;101531.23;106159;1261;62704;-84
2023/09/28 16:31:55;;;;;;;;;;;;;;;24.51;54.38;101530.73;106115;1261;61242;-84
2023/09/28 16:34:22;;;;;;;;;;;;;;;24.34;55.60;101527.33;106119;1263;74788;-84
2023/09/28 16:36:49;;;;;;;;;;;;;;;24.24;56.51;101531.71;106221;1262;67550;-84
2023/09/28 16:39:16;;;;;;;;;;;;;;;24.12;57.55;101534.15;106225;1263;72686;-84
2023/09/28 16:41:43;;;;;;;;;;;;;;;24.01;57.51;101535.94;106224;1262;61250;-85
2023/09/28 16:44:10;;;;;;;;;;;;;;;23.93;57.36;101537.09;106211;1259;60024;-85
2023/09/28 16:46:37;;;;;;;;;;;;;;;23.78;55.76;101539.89;106164;1257;74938;-85
2023/09/28 16:49:04;;;;;;;;;;;;;;;23.67;57.03;101538.98;106147;1262;68462;-83
2023/09/28 16:51:33;;;;;;;;;;;;;;;23.58;58.90;101538.34;106204;1262;72708;-85
2023/09/28 16:54:00;;;;;;;;;;;;;;;23.51;59.70;101541.02;106130;1262;61259;-85
2023/09/28 16:56:27;;;;;;;;;;;;;;;23.41;59.87;101544.88;106136;1263;61190;-85
2023/09/28 16:58:55;;;;;;;;;;;;;;;23.30;58.52;101548.02;106139;1258;74348;-85
2023/09/28 17:01:23;;;;;;;;;;;;;;;23.05;59.53;101549.68;106117;1258;69749;-85
2023/09/28 17:03:50;;;;;;;;;;;;;;;22.83;60.87;101553.39;106098;1259;72481;-84
2023/09/28 17:06:22;;;;;;;;;;;;;;;22.63;63.74;101554.84;106136;1261;61276;-85
2023/09/28 17:08:49;;;;;;;;;;;;;;;22.50;66.28;101554.60;106253;1261;61340;-86
2023/09/28 17:11:16;;;;;;;;;;;;;;;22.44;67.46;101558.72;106226;1257;73880;-84
2023/09/28 17:13:43;;;;;;;;;;;;;;;22.35;67.65;101562.88;106124;1257;70033;-86